sensor_id;sensor_type;location;lat;lon;timestamp;P1;durP1;ratioP1;P2;durP2;ratioP2
23745;SDS011;12053;48.878;9.632;2022-09-17T00:01:35;3.90;;;2.10;;
23745;SDS011;12053;48.878;9.632;2022-09-17T00:04:03;4.90;;;1.92;;
23745;SDS011;12053;48.878;9.632;2022-09-17T00:06:31;2.00;;;1.80;;
23745;SDS011;12053;48.878;9.632;2022-09-17T00:08:58;3.80;;;2.03;;
23745;SDS011;12053;48.878;9.632;2022-09-17T00:11:26;2.95;;;1.70;;
23745;SDS011;12053;48.878;9.632;2022-09-17T00:13:54;3.22;;;1.98;;
23745;SDS011;12053;48.878;9.632;2022-09-17T00:18:52;2.88;;;1.67;;
23745;SDS011;12053;48.878;9.632;2022-09-17T00:21:19;2.97;;;1.80;;
23745;SDS011;12053;48.878;9.632;2022-09-17T00:23:47;2.65;;;1.70;;
23745;SDS011;12053;48.878;9.632;2022-09-17T00:26:14;3.15;;;1.73;;
23745;SDS011;12053;48.878;9.632;2022-09-17T00:28:41;3.08;;;1.52;;
23745;SDS011;12053;48.878;9.632;2022-09-17T00:31:13;3.17;;;1.50;;
23745;SDS011;12053;48.878;9.632;2022-09-17T00:33:40;4.60;;;2.05;;
23745;SDS011;12053;48.878;9.632;2022-09-17T00:36:07;2.17;;;1.75;;
23745;SDS011;12053;48.878;9.632;2022-09-17T00:38:34;2.90;;;1.67;;
23745;SDS011;12053;48.878;9.632;2022-09-17T00:41:02;1.60;;;1.42;;
23745;SDS011;12053;48.878;9.632;2022-09-17T00:43:40;3.53;;;1.73;;
23745;SDS011;12053;48.878;9.632;2022-09-17T00:46:50;1.88;;;1.67;;
23745;SDS011;12053;48.878;9.632;2022-09-17T00:48:59;3.88;;;1.75;;
23745;SDS011;12053;48.878;9.632;2022-09-17T00:51:34;3.60;;;2.05;;
23745;SDS011;12053;48.878;9.632;2022-09-17T00:54:03;2.75;;;1.63;;
23745;SDS011;12053;48.878;9.632;2022-09-17T00:56:33;1.50;;;1.40;;
23745;SDS011;12053;48.878;9.632;2022-09-17T00:59:01;1.60;;;1.50;;
23745;SDS011;12053;48.878;9.632;2022-09-17T01:01:29;2.03;;;1.48;;
23745;SDS011;12053;48.878;9.632;2022-09-17T01:03:56;2.88;;;1.92;;
23745;SDS011;12053;48.878;9.632;2022-09-17T01:06:46;1.98;;;1.60;;
23745;SDS011;12053;48.878;9.632;2022-09-17T01:30:37;4.60;;;2.20;;
23745;SDS011;12053;48.878;9.632;2022-09-17T01:33:11;3.47;;;2.33;;
23745;SDS011;12053;48.878;9.632;2022-09-17T01:40:48;8.23;;;2.28;;
23745;SDS011;12053;48.878;9.632;2022-09-17T01:43:20;2.80;;;2.25;;
23745;SDS011;12053;48.878;9.632;2022-09-17T01:45:51;3.35;;;2.35;;
23745;SDS011;12053;48.878;9.632;2022-09-17T01:48:19;2.45;;;2.20;;
23745;SDS011;12053;48.878;9.632;2022-09-17T01:50:51;3.45;;;2.35;;
23745;SDS011;12053;48.878;9.632;2022-09-17T01:53:20;2.58;;;1.92;;
23745;SDS011;12053;48.878;9.632;2022-09-17T01:55:50;5.10;;;2.33;;
23745;SDS011;12053;48.878;9.632;2022-09-17T01:58:28;6.13;;;2.40;;
23745;SDS011;12053;48.878;9.632;2022-09-17T02:00:59;3.15;;;2.40;;
23745;SDS011;12053;48.878;9.632;2022-09-17T02:03:42;2.38;;;2.15;;
23745;SDS011;12053;48.878;9.632;2022-09-17T02:06:18;5.35;;;2.15;;
23745;SDS011;12053;48.878;9.632;2022-09-17T02:08:49;2.25;;;1.85;;
23745;SDS011;12053;48.878;9.632;2022-09-17T02:11:17;4.53;;;2.40;;
23745;SDS011;12053;48.878;9.632;2022-09-17T02:13:56;8.63;;;2.30;;
23745;SDS011;12053;48.878;9.632;2022-09-17T02:16:26;3.53;;;2.10;;
23745;SDS011;12053;48.878;9.632;2022-09-17T02:24:20;7.88;;;2.60;;
23745;SDS011;12053;48.878;9.632;2022-09-17T02:26:57;5.47;;;3.40;;
23745;SDS011;12053;48.878;9.632;2022-09-17T02:29:32;4.03;;;2.40;;
23745;SDS011;12053;48.878;9.632;2022-09-17T02:32:00;6.50;;;2.17;;
23745;SDS011;12053;48.878;9.632;2022-09-17T02:34:27;6.55;;;2.30;;
23745;SDS011;12053;48.878;9.632;2022-09-17T02:36:55;2.95;;;1.77;;
23745;SDS011;12053;48.878;9.632;2022-09-17T02:39:24;3.92;;;1.85;;
23745;SDS011;12053;48.878;9.632;2022-09-17T02:44:25;7.88;;;2.42;;
23745;SDS011;12053;48.878;9.632;2022-09-17T02:47:04;6.60;;;2.05;;
23745;SDS011;12053;48.878;9.632;2022-09-17T02:54:59;3.25;;;2.13;;
23745;SDS011;12053;48.878;9.632;2022-09-17T02:57:32;5.97;;;2.35;;
23745;SDS011;12053;48.878;9.632;2022-09-17T03:00:08;4.43;;;2.72;;
23745;SDS011;12053;48.878;9.632;2022-09-17T03:05:09;5.60;;;2.47;;
23745;SDS011;12053;48.878;9.632;2022-09-17T03:07:36;4.22;;;2.35;;
23745;SDS011;12053;48.878;9.632;2022-09-17T03:10:04;5.10;;;2.60;;
23745;SDS011;12053;48.878;9.632;2022-09-17T03:12:31;4.45;;;2.70;;
23745;SDS011;12053;48.878;9.632;2022-09-17T03:14:58;5.65;;;2.90;;
23745;SDS011;12053;48.878;9.632;2022-09-17T03:17:25;4.65;;;2.65;;
23745;SDS011;12053;48.878;9.632;2022-09-17T03:19:53;3.90;;;2.63;;
23745;SDS011;12053;48.878;9.632;2022-09-17T03:22:20;5.85;;;2.63;;
23745;SDS011;12053;48.878;9.632;2022-09-17T03:24:47;4.85;;;2.70;;
23745;SDS011;12053;48.878;9.632;2022-09-17T03:27:14;5.60;;;2.55;;
23745;SDS011;12053;48.878;9.632;2022-09-17T03:29:41;3.53;;;2.75;;
23745;SDS011;12053;48.878;9.632;2022-09-17T03:32:09;5.85;;;2.50;;
23745;SDS011;12053;48.878;9.632;2022-09-17T03:34:36;5.00;;;2.10;;
23745;SDS011;12053;48.878;9.632;2022-09-17T03:37:03;5.60;;;2.50;;
23745;SDS011;12053;48.878;9.632;2022-09-17T03:39:30;5.93;;;2.83;;
23745;SDS011;12053;48.878;9.632;2022-09-17T03:41:57;3.88;;;2.40;;
23745;SDS011;12053;48.878;9.632;2022-09-17T03:44:24;9.80;;;2.33;;
23745;SDS011;12053;48.878;9.632;2022-09-17T03:46:51;4.43;;;2.45;;
23745;SDS011;12053;48.878;9.632;2022-09-17T03:49:18;7.32;;;2.85;;
23745;SDS011;12053;48.878;9.632;2022-09-17T03:51:45;6.68;;;2.55;;
23745;SDS011;12053;48.878;9.632;2022-09-17T03:54:13;8.90;;;2.53;;
23745;SDS011;12053;48.878;9.632;2022-09-17T03:56:40;4.40;;;2.47;;
23745;SDS011;12053;48.878;9.632;2022-09-17T03:59:07;6.10;;;2.33;;
23745;SDS011;12053;48.878;9.632;2022-09-17T04:01:34;7.28;;;2.15;;
23745;SDS011;12053;48.878;9.632;2022-09-17T04:04:02;7.07;;;2.58;;
23745;SDS011;12053;48.878;9.632;2022-09-17T04:06:29;5.15;;;2.13;;
23745;SDS011;12053;48.878;9.632;2022-09-17T04:08:56;5.90;;;2.38;;
23745;SDS011;12053;48.878;9.632;2022-09-17T04:11:26;4.80;;;2.40;;
23745;SDS011;12053;48.878;9.632;2022-09-17T04:13:53;6.50;;;2.55;;
23745;SDS011;12053;48.878;9.632;2022-09-17T04:16:20;7.22;;;2.85;;
23745;SDS011;12053;48.878;9.632;2022-09-17T04:18:47;5.78;;;2.85;;
23745;SDS011;12053;48.878;9.632;2022-09-17T04:21:14;4.63;;;2.75;;
23745;SDS011;12053;48.878;9.632;2022-09-17T04:23:41;5.65;;;2.42;;
23745;SDS011;12053;48.878;9.632;2022-09-17T04:26:09;6.63;;;2.78;;
23745;SDS011;12053;48.878;9.632;2022-09-17T04:28:36;5.93;;;2.95;;
23745;SDS011;12053;48.878;9.632;2022-09-17T04:31:03;4.32;;;2.55;;
23745;SDS011;12053;48.878;9.632;2022-09-17T04:33:30;7.00;;;3.17;;
23745;SDS011;12053;48.878;9.632;2022-09-17T04:35:57;5.82;;;3.10;;
23745;SDS011;12053;48.878;9.632;2022-09-17T04:38:25;7.70;;;2.90;;
23745;SDS011;12053;48.878;9.632;2022-09-17T04:40:52;6.15;;;2.83;;
23745;SDS011;12053;48.878;9.632;2022-09-17T04:43:22;6.65;;;2.92;;
23745;SDS011;12053;48.878;9.632;2022-09-17T04:45:49;7.82;;;3.20;;
23745;SDS011;12053;48.878;9.632;2022-09-17T04:48:16;6.32;;;2.45;;
23745;SDS011;12053;48.878;9.632;2022-09-17T04:50:43;5.40;;;2.88;;
23745;SDS011;12053;48.878;9.632;2022-09-17T04:53:11;7.35;;;2.75;;
23745;SDS011;12053;48.878;9.632;2022-09-17T04:55:38;8.82;;;2.90;;
23745;SDS011;12053;48.878;9.632;2022-09-17T04:58:05;5.57;;;2.72;;
23745;SDS011;12053;48.878;9.632;2022-09-17T05:00:32;10.13;;;2.70;;
23745;SDS011;12053;48.878;9.632;2022-09-17T05:03:00;7.38;;;2.30;;
23745;SDS011;12053;48.878;9.632;2022-09-17T05:05:27;6.13;;;2.65;;
23745;SDS011;12053;48.878;9.632;2022-09-17T05:07:55;5.90;;;2.97;;
23745;SDS011;12053;48.878;9.632;2022-09-17T05:10:22;8.13;;;3.20;;
23745;SDS011;12053;48.878;9.632;2022-09-17T05:12:50;8.23;;;2.78;;
23745;SDS011;12053;48.878;9.632;2022-09-17T05:15:17;6.60;;;2.88;;
23745;SDS011;12053;48.878;9.632;2022-09-17T05:17:45;8.80;;;2.83;;
23745;SDS011;12053;48.878;9.632;2022-09-17T05:20:12;3.63;;;2.50;;
23745;SDS011;12053;48.878;9.632;2022-09-17T05:22:44;7.82;;;3.10;;
23745;SDS011;12053;48.878;9.632;2022-09-17T05:25:11;8.15;;;2.72;;
23745;SDS011;12053;48.878;9.632;2022-09-17T05:27:39;8.45;;;3.20;;
23745;SDS011;12053;48.878;9.632;2022-09-17T05:30:06;11.60;;;3.20;;
23745;SDS011;12053;48.878;9.632;2022-09-17T05:32:34;8.40;;;3.20;;
23745;SDS011;12053;48.878;9.632;2022-09-17T05:35:02;4.65;;;3.25;;
23745;SDS011;12053;48.878;9.632;2022-09-17T05:37:31;5.70;;;3.17;;
23745;SDS011;12053;48.878;9.632;2022-09-17T05:39:58;6.88;;;3.85;;
23745;SDS011;12053;48.878;9.632;2022-09-17T05:42:25;8.75;;;3.00;;
23745;SDS011;12053;48.878;9.632;2022-09-17T05:44:52;9.25;;;3.55;;
23745;SDS011;12053;48.878;9.632;2022-09-17T05:47:20;7.57;;;3.28;;
23745;SDS011;12053;48.878;9.632;2022-09-17T05:49:47;7.05;;;3.28;;
23745;SDS011;12053;48.878;9.632;2022-09-17T05:52:14;10.90;;;3.63;;
23745;SDS011;12053;48.878;9.632;2022-09-17T05:54:41;8.75;;;3.47;;
23745;SDS011;12053;48.878;9.632;2022-09-17T05:57:08;12.57;;;3.63;;
23745;SDS011;12053;48.878;9.632;2022-09-17T05:59:35;9.35;;;3.17;;
23745;SDS011;12053;48.878;9.632;2022-09-17T06:02:02;10.48;;;4.28;;
23745;SDS011;12053;48.878;9.632;2022-09-17T06:04:30;9.40;;;3.78;;
23745;SDS011;12053;48.878;9.632;2022-09-17T06:07:02;7.95;;;3.85;;
23745;SDS011;12053;48.878;9.632;2022-09-17T06:09:30;7.95;;;4.07;;
23745;SDS011;12053;48.878;9.632;2022-09-17T06:11:57;8.27;;;3.70;;
23745;SDS011;12053;48.878;9.632;2022-09-17T06:14:24;16.30;;;6.97;;
23745;SDS011;12053;48.878;9.632;2022-09-17T06:16:51;17.02;;;6.72;;
23745;SDS011;12053;48.878;9.632;2022-09-17T06:19:18;6.25;;;3.75;;
23745;SDS011;12053;48.878;9.632;2022-09-17T06:21:45;8.05;;;2.88;;
23745;SDS011;12053;48.878;9.632;2022-09-17T06:24:12;8.30;;;3.50;;
23745;SDS011;12053;48.878;9.632;2022-09-17T06:26:39;4.72;;;2.85;;
23745;SDS011;12053;48.878;9.632;2022-09-17T06:29:07;6.30;;;3.25;;
23745;SDS011;12053;48.878;9.632;2022-09-17T06:31:34;9.43;;;3.22;;
23745;SDS011;12053;48.878;9.632;2022-09-17T06:34:01;6.68;;;3.53;;
23745;SDS011;12053;48.878;9.632;2022-09-17T06:36:30;6.15;;;3.45;;
23745;SDS011;12053;48.878;9.632;2022-09-17T06:38:57;7.03;;;2.97;;
23745;SDS011;12053;48.878;9.632;2022-09-17T06:41:24;5.72;;;3.05;;
23745;SDS011;12053;48.878;9.632;2022-09-17T06:43:52;7.55;;;3.40;;
23745;SDS011;12053;48.878;9.632;2022-09-17T06:46:19;10.40;;;3.35;;
23745;SDS011;12053;48.878;9.632;2022-09-17T06:48:47;8.32;;;3.17;;
23745;SDS011;12053;48.878;9.632;2022-09-17T06:51:14;9.60;;;3.28;;
23745;SDS011;12053;48.878;9.632;2022-09-17T06:53:41;8.57;;;3.53;;
23745;SDS011;12053;48.878;9.632;2022-09-17T06:56:08;8.05;;;3.10;;
23745;SDS011;12053;48.878;9.632;2022-09-17T06:58:36;8.95;;;3.13;;
23745;SDS011;12053;48.878;9.632;2022-09-17T07:01:03;10.90;;;3.65;;
23745;SDS011;12053;48.878;9.632;2022-09-17T07:03:31;6.68;;;3.10;;
23745;SDS011;12053;48.878;9.632;2022-09-17T07:05:58;5.30;;;3.15;;
23745;SDS011;12053;48.878;9.632;2022-09-17T07:08:25;8.90;;;3.60;;
23745;SDS011;12053;48.878;9.632;2022-09-17T07:10:55;8.40;;;3.47;;
23745;SDS011;12053;48.878;9.632;2022-09-17T07:13:23;7.72;;;4.25;;
23745;SDS011;12053;48.878;9.632;2022-09-17T07:15:51;7.63;;;3.83;;
23745;SDS011;12053;48.878;9.632;2022-09-17T07:18:18;6.97;;;3.83;;
23745;SDS011;12053;48.878;9.632;2022-09-17T07:20:51;5.55;;;3.65;;
23745;SDS011;12053;48.878;9.632;2022-09-17T07:23:19;12.02;;;4.05;;
23745;SDS011;12053;48.878;9.632;2022-09-17T07:25:50;6.85;;;3.50;;
23745;SDS011;12053;48.878;9.632;2022-09-17T07:28:17;4.40;;;3.60;;
23745;SDS011;12053;48.878;9.632;2022-09-17T07:30:45;5.95;;;3.95;;
23745;SDS011;12053;48.878;9.632;2022-09-17T07:33:12;8.32;;;4.03;;
23745;SDS011;12053;48.878;9.632;2022-09-17T07:35:39;8.88;;;3.85;;
23745;SDS011;12053;48.878;9.632;2022-09-17T07:38:06;6.07;;;3.85;;
23745;SDS011;12053;48.878;9.632;2022-09-17T07:40:33;6.20;;;3.15;;
23745;SDS011;12053;48.878;9.632;2022-09-17T07:43:00;7.88;;;3.03;;
23745;SDS011;12053;48.878;9.632;2022-09-17T07:45:27;4.10;;;2.88;;
23745;SDS011;12053;48.878;9.632;2022-09-17T07:47:54;6.57;;;3.08;;
23745;SDS011;12053;48.878;9.632;2022-09-17T07:50:21;6.65;;;3.47;;
23745;SDS011;12053;48.878;9.632;2022-09-17T07:52:49;5.45;;;3.25;;
23745;SDS011;12053;48.878;9.632;2022-09-17T07:55:16;6.57;;;3.28;;
23745;SDS011;12053;48.878;9.632;2022-09-17T07:57:48;7.40;;;3.85;;
23745;SDS011;12053;48.878;9.632;2022-09-17T08:00:16;7.45;;;3.30;;
23745;SDS011;12053;48.878;9.632;2022-09-17T08:02:43;4.25;;;2.97;;
23745;SDS011;12053;48.878;9.632;2022-09-17T08:05:10;3.83;;;3.40;;
23745;SDS011;12053;48.878;9.632;2022-09-17T08:07:37;6.50;;;3.22;;
23745;SDS011;12053;48.878;9.632;2022-09-17T08:10:05;6.90;;;4.10;;
23745;SDS011;12053;48.878;9.632;2022-09-17T08:12:32;4.90;;;3.88;;
23745;SDS011;12053;48.878;9.632;2022-09-17T08:14:59;9.57;;;4.40;;
23745;SDS011;12053;48.878;9.632;2022-09-17T08:17:26;7.38;;;4.50;;
23745;SDS011;12053;48.878;9.632;2022-09-17T08:19:53;10.00;;;5.40;;
23745;SDS011;12053;48.878;9.632;2022-09-17T08:22:20;5.13;;;4.68;;
23745;SDS011;12053;48.878;9.632;2022-09-17T08:24:47;8.82;;;4.72;;
23745;SDS011;12053;48.878;9.632;2022-09-17T08:27:15;8.88;;;4.78;;
23745;SDS011;12053;48.878;9.632;2022-09-17T08:29:42;8.18;;;5.03;;
23745;SDS011;12053;48.878;9.632;2022-09-17T08:32:09;8.52;;;4.40;;
23745;SDS011;12053;48.878;9.632;2022-09-17T08:34:37;8.35;;;4.60;;
23745;SDS011;12053;48.878;9.632;2022-09-17T08:37:04;9.93;;;5.10;;
23745;SDS011;12053;48.878;9.632;2022-09-17T08:39:31;11.00;;;5.70;;
23745;SDS011;12053;48.878;9.632;2022-09-17T08:44:41;14.35;;;5.53;;
23745;SDS011;12053;48.878;9.632;2022-09-17T08:49:49;7.68;;;4.75;;
23745;SDS011;12053;48.878;9.632;2022-09-17T09:00:44;10.52;;;6.93;;
23745;SDS011;12053;48.878;9.632;2022-09-17T09:11:04;12.05;;;6.13;;
23745;SDS011;12053;48.878;9.632;2022-09-17T09:13:49;12.27;;;6.10;;
23745;SDS011;12053;48.878;9.632;2022-09-17T09:16:19;13.90;;;6.47;;
23745;SDS011;12053;48.878;9.632;2022-09-17T09:18:49;8.43;;;5.82;;
23745;SDS011;12053;48.878;9.632;2022-09-17T09:21:21;16.30;;;6.70;;
23745;SDS011;12053;48.878;9.632;2022-09-17T09:23:56;13.75;;;6.28;;
23745;SDS011;12053;48.878;9.632;2022-09-17T09:26:39;16.42;;;6.55;;
23745;SDS011;12053;48.878;9.632;2022-09-17T09:34:23;8.77;;;5.07;;
23745;SDS011;12053;48.878;9.632;2022-09-17T09:36:53;9.88;;;5.22;;
23745;SDS011;12053;48.878;9.632;2022-09-17T09:39:22;11.00;;;5.50;;
23745;SDS011;12053;48.878;9.632;2022-09-17T09:41:54;10.32;;;5.30;;
23745;SDS011;12053;48.878;9.632;2022-09-17T09:44:23;16.70;;;4.85;;
23745;SDS011;12053;48.878;9.632;2022-09-17T09:54:46;14.55;;;4.20;;
23745;SDS011;12053;48.878;9.632;2022-09-17T09:57:16;15.73;;;3.97;;
23745;SDS011;12053;48.878;9.632;2022-09-17T09:59:44;9.02;;;3.58;;
23745;SDS011;12053;48.878;9.632;2022-09-17T10:02:11;8.23;;;3.40;;
23745;SDS011;12053;48.878;9.632;2022-09-17T10:04:39;13.05;;;4.32;;
23745;SDS011;12053;48.878;9.632;2022-09-17T10:07:07;8.57;;;3.15;;
23745;SDS011;12053;48.878;9.632;2022-09-17T10:09:36;13.63;;;3.83;;
23745;SDS011;12053;48.878;9.632;2022-09-17T10:14:32;9.80;;;3.50;;
23745;SDS011;12053;48.878;9.632;2022-09-17T10:22:29;8.38;;;3.83;;
23745;SDS011;12053;48.878;9.632;2022-09-17T10:24:58;9.52;;;3.63;;
23745;SDS011;12053;48.878;9.632;2022-09-17T10:27:26;11.20;;;3.90;;
23745;SDS011;12053;48.878;9.632;2022-09-17T10:30:12;14.32;;;4.28;;
23745;SDS011;12053;48.878;9.632;2022-09-17T10:32:40;18.38;;;4.35;;
23745;SDS011;12053;48.878;9.632;2022-09-17T10:37:50;11.35;;;3.33;;
23745;SDS011;12053;48.878;9.632;2022-09-17T10:42:45;9.85;;;2.60;;
23745;SDS011;12053;48.878;9.632;2022-09-17T10:45:28;6.55;;;2.30;;
23745;SDS011;12053;48.878;9.632;2022-09-17T10:47:56;10.13;;;2.40;;
23745;SDS011;12053;48.878;9.632;2022-09-17T10:50:26;6.65;;;1.67;;
23745;SDS011;12053;48.878;9.632;2022-09-17T10:52:59;7.32;;;1.98;;
23745;SDS011;12053;48.878;9.632;2022-09-17T10:55:30;8.45;;;2.45;;
23745;SDS011;12053;48.878;9.632;2022-09-17T11:00:27;8.82;;;2.40;;
23745;SDS011;12053;48.878;9.632;2022-09-17T11:03:00;3.97;;;1.80;;
23745;SDS011;12053;48.878;9.632;2022-09-17T11:08:22;7.38;;;2.28;;
23745;SDS011;12053;48.878;9.632;2022-09-17T11:10:53;7.05;;;1.77;;
23745;SDS011;12053;48.878;9.632;2022-09-17T11:13:34;8.18;;;2.80;;
23745;SDS011;12053;48.878;9.632;2022-09-17T11:16:10;8.05;;;2.63;;
23745;SDS011;12053;48.878;9.632;2022-09-17T11:18:46;5.93;;;2.33;;
23745;SDS011;12053;48.878;9.632;2022-09-17T11:31:36;8.35;;;3.10;;
23745;SDS011;12053;48.878;9.632;2022-09-17T11:34:13;6.10;;;2.67;;
23745;SDS011;12053;48.878;9.632;2022-09-17T11:36:57;10.93;;;3.42;;
23745;SDS011;12053;48.878;9.632;2022-09-17T11:39:31;10.88;;;4.05;;
23745;SDS011;12053;48.878;9.632;2022-09-17T11:42:01;5.28;;;2.78;;
23745;SDS011;12053;48.878;9.632;2022-09-17T11:44:30;1.65;;;1.40;;
23745;SDS011;12053;48.878;9.632;2022-09-17T11:47:08;1.92;;;1.73;;
23745;SDS011;12053;48.878;9.632;2022-09-17T11:49:44;3.92;;;1.50;;
23745;SDS011;12053;48.878;9.632;2022-09-17T11:52:30;1.15;;;0.82;;
23745;SDS011;12053;48.878;9.632;2022-09-17T11:57:44;1.08;;;0.68;;
23745;SDS011;12053;48.878;9.632;2022-09-17T12:00:13;1.58;;;0.65;;
23745;SDS011;12053;48.878;9.632;2022-09-17T12:13:15;1.77;;;1.27;;
23745;SDS011;12053;48.878;9.632;2022-09-17T12:15:44;2.40;;;1.20;;
23745;SDS011;12053;48.878;9.632;2022-09-17T12:20:57;1.80;;;0.80;;
23745;SDS011;12053;48.878;9.632;2022-09-17T12:23:31;3.33;;;1.20;;
23745;SDS011;12053;48.878;9.632;2022-09-17T12:26:04;3.63;;;1.20;;
23745;SDS011;12053;48.878;9.632;2022-09-17T12:28:48;2.60;;;1.42;;
23745;SDS011;12053;48.878;9.632;2022-09-17T12:31:22;3.58;;;1.42;;
23745;SDS011;12053;48.878;9.632;2022-09-17T12:33:54;2.90;;;1.20;;
23745;SDS011;12053;48.878;9.632;2022-09-17T12:41:38;2.70;;;1.90;;
23745;SDS011;12053;48.878;9.632;2022-09-17T12:55:35;3.72;;;1.40;;
23745;SDS011;12053;48.878;9.632;2022-09-17T13:00:23;4.93;;;1.73;;
23745;SDS011;12053;48.878;9.632;2022-09-17T13:02:52;3.42;;;1.67;;
23745;SDS011;12053;48.878;9.632;2022-09-17T13:11:09;4.50;;;1.42;;
23745;SDS011;12053;48.878;9.632;2022-09-17T13:16:14;3.15;;;1.60;;
23745;SDS011;12053;48.878;9.632;2022-09-17T13:21:32;5.10;;;2.80;;
23745;SDS011;12053;48.878;9.632;2022-09-17T13:24:02;7.65;;;2.65;;
23745;SDS011;12053;48.878;9.632;2022-09-17T13:26:40;4.53;;;1.90;;
23745;SDS011;12053;48.878;9.632;2022-09-17T13:29:07;3.15;;;1.73;;
23745;SDS011;12053;48.878;9.632;2022-09-17T13:36:50;15.30;;;2.83;;
23745;SDS011;12053;48.878;9.632;2022-09-17T13:42:18;9.05;;;3.10;;
23745;SDS011;12053;48.878;9.632;2022-09-17T13:45:00;6.53;;;3.00;;
23745;SDS011;12053;48.878;9.632;2022-09-17T13:47:34;4.85;;;2.47;;
23745;SDS011;12053;48.878;9.632;2022-09-17T13:50:06;2.97;;;2.13;;
23745;SDS011;12053;48.878;9.632;2022-09-17T13:52:36;5.88;;;2.88;;
23745;SDS011;12053;48.878;9.632;2022-09-17T13:55:04;6.55;;;2.35;;
23745;SDS011;12053;48.878;9.632;2022-09-17T13:57:42;2.53;;;1.50;;
23745;SDS011;12053;48.878;9.632;2022-09-17T14:03:25;3.60;;;1.58;;
23745;SDS011;12053;48.878;9.632;2022-09-17T14:05:45;3.33;;;1.02;;
23745;SDS011;12053;48.878;9.632;2022-09-17T14:08:14;3.40;;;1.23;;
23745;SDS011;12053;48.878;9.632;2022-09-17T14:10:53;1.65;;;0.90;;
23745;SDS011;12053;48.878;9.632;2022-09-17T14:13:24;2.60;;;1.05;;
23745;SDS011;12053;48.878;9.632;2022-09-17T14:15:58;3.05;;;1.02;;
23745;SDS011;12053;48.878;9.632;2022-09-17T14:23:33;5.53;;;1.10;;
23745;SDS011;12053;48.878;9.632;2022-09-17T14:26:01;2.75;;;1.45;;
23745;SDS011;12053;48.878;9.632;2022-09-17T14:28:33;9.27;;;2.05;;
23745;SDS011;12053;48.878;9.632;2022-09-17T14:31:08;1.63;;;1.10;;
23745;SDS011;12053;48.878;9.632;2022-09-17T14:36:08;4.53;;;1.20;;
23745;SDS011;12053;48.878;9.632;2022-09-17T14:38:40;2.03;;;1.20;;
23745;SDS011;12053;48.878;9.632;2022-09-17T14:43:42;4.13;;;1.15;;
23745;SDS011;12053;48.878;9.632;2022-09-17T14:46:14;6.07;;;1.70;;
23745;SDS011;12053;48.878;9.632;2022-09-17T14:48:44;2.47;;;1.20;;
23745;SDS011;12053;48.878;9.632;2022-09-17T14:53:48;3.70;;;1.10;;
23745;SDS011;12053;48.878;9.632;2022-09-17T14:56:16;3.08;;;1.33;;
23745;SDS011;12053;48.878;9.632;2022-09-17T14:58:45;5.47;;;1.58;;
23745;SDS011;12053;48.878;9.632;2022-09-17T15:01:27;2.65;;;1.23;;
23745;SDS011;12053;48.878;9.632;2022-09-17T15:06:40;2.50;;;0.90;;
23745;SDS011;12053;48.878;9.632;2022-09-17T15:09:13;2.13;;;1.20;;
23745;SDS011;12053;48.878;9.632;2022-09-17T15:11:41;4.30;;;2.08;;
23745;SDS011;12053;48.878;9.632;2022-09-17T15:14:19;6.65;;;1.35;;
23745;SDS011;12053;48.878;9.632;2022-09-17T15:16:47;2.08;;;1.10;;
23745;SDS011;12053;48.878;9.632;2022-09-17T15:19:26;2.40;;;1.20;;
23745;SDS011;12053;48.878;9.632;2022-09-17T15:21:56;5.40;;;1.30;;
23745;SDS011;12053;48.878;9.632;2022-09-17T15:27:11;2.92;;;1.02;;
23745;SDS011;12053;48.878;9.632;2022-09-17T15:29:41;3.08;;;1.15;;
23745;SDS011;12053;48.878;9.632;2022-09-17T15:32:12;3.47;;;1.25;;
23745;SDS011;12053;48.878;9.632;2022-09-17T15:34:40;2.15;;;1.10;;
23745;SDS011;12053;48.878;9.632;2022-09-17T15:39:41;5.80;;;1.63;;
23745;SDS011;12053;48.878;9.632;2022-09-17T15:42:44;2.92;;;1.15;;
23745;SDS011;12053;48.878;9.632;2022-09-17T15:45:15;2.33;;;1.42;;
23745;SDS011;12053;48.878;9.632;2022-09-17T15:50:18;3.03;;;1.80;;
23745;SDS011;12053;48.878;9.632;2022-09-17T15:52:46;2.50;;;1.23;;
23745;SDS011;12053;48.878;9.632;2022-09-17T15:55:29;2.05;;;1.30;;
23745;SDS011;12053;48.878;9.632;2022-09-17T15:58:00;4.00;;;1.40;;
23745;SDS011;12053;48.878;9.632;2022-09-17T16:00:28;4.50;;;1.63;;
23745;SDS011;12053;48.878;9.632;2022-09-17T16:02:56;4.97;;;2.05;;
23745;SDS011;12053;48.878;9.632;2022-09-17T16:07:51;2.63;;;1.30;;
23745;SDS011;12053;48.878;9.632;2022-09-17T16:10:18;3.22;;;1.40;;
23745;SDS011;12053;48.878;9.632;2022-09-17T16:12:47;4.72;;;1.40;;
23745;SDS011;12053;48.878;9.632;2022-09-17T16:15:15;3.72;;;1.30;;
23745;SDS011;12053;48.878;9.632;2022-09-17T16:17:43;4.72;;;1.40;;
23745;SDS011;12053;48.878;9.632;2022-09-17T16:22:41;4.80;;;1.73;;
23745;SDS011;12053;48.878;9.632;2022-09-17T16:25:09;4.45;;;2.38;;
23745;SDS011;12053;48.878;9.632;2022-09-17T16:27:42;24.63;;;11.15;;
23745;SDS011;12053;48.878;9.632;2022-09-17T16:30:13;5.45;;;2.90;;
23745;SDS011;12053;48.878;9.632;2022-09-17T16:32:40;5.00;;;2.10;;
23745;SDS011;12053;48.878;9.632;2022-09-17T16:35:10;5.05;;;1.88;;
23745;SDS011;12053;48.878;9.632;2022-09-17T16:37:42;5.75;;;1.70;;
23745;SDS011;12053;48.878;9.632;2022-09-17T16:40:10;2.63;;;1.63;;
23745;SDS011;12053;48.878;9.632;2022-09-17T16:42:38;4.57;;;1.60;;
23745;SDS011;12053;48.878;9.632;2022-09-17T16:45:05;3.60;;;1.67;;
23745;SDS011;12053;48.878;9.632;2022-09-17T16:47:34;3.08;;;1.70;;
23745;SDS011;12053;48.878;9.632;2022-09-17T16:50:06;3.55;;;1.73;;
23745;SDS011;12053;48.878;9.632;2022-09-17T16:52:33;6.65;;;2.13;;
23745;SDS011;12053;48.878;9.632;2022-09-17T16:55:01;4.53;;;1.80;;
23745;SDS011;12053;48.878;9.632;2022-09-17T16:57:29;6.03;;;1.73;;
23745;SDS011;12053;48.878;9.632;2022-09-17T16:59:56;4.43;;;2.33;;
23745;SDS011;12053;48.878;9.632;2022-09-17T17:02:23;4.53;;;1.80;;
23745;SDS011;12053;48.878;9.632;2022-09-17T17:04:51;5.00;;;2.30;;
23745;SDS011;12053;48.878;9.632;2022-09-17T17:07:19;4.15;;;1.75;;
23745;SDS011;12053;48.878;9.632;2022-09-17T17:09:46;3.78;;;1.20;;
23745;SDS011;12053;48.878;9.632;2022-09-17T17:12:13;5.22;;;1.98;;
23745;SDS011;12053;48.878;9.632;2022-09-17T17:14:40;7.90;;;1.98;;
23745;SDS011;12053;48.878;9.632;2022-09-17T17:17:09;3.75;;;1.65;;
23745;SDS011;12053;48.878;9.632;2022-09-17T17:19:36;5.60;;;3.30;;
23745;SDS011;12053;48.878;9.632;2022-09-17T17:22:04;4.75;;;1.77;;
23745;SDS011;12053;48.878;9.632;2022-09-17T17:24:31;7.10;;;2.45;;
23745;SDS011;12053;48.878;9.632;2022-09-17T17:26:59;6.40;;;2.90;;
23745;SDS011;12053;48.878;9.632;2022-09-17T17:29:26;4.30;;;1.92;;
23745;SDS011;12053;48.878;9.632;2022-09-17T17:31:53;5.82;;;2.05;;
23745;SDS011;12053;48.878;9.632;2022-09-17T17:34:20;4.25;;;1.90;;
23745;SDS011;12053;48.878;9.632;2022-09-17T17:36:48;5.72;;;1.70;;
23745;SDS011;12053;48.878;9.632;2022-09-17T17:39:15;5.88;;;1.50;;
23745;SDS011;12053;48.878;9.632;2022-09-17T17:41:43;7.20;;;2.20;;
23745;SDS011;12053;48.878;9.632;2022-09-17T17:44:16;3.00;;;1.40;;
23745;SDS011;12053;48.878;9.632;2022-09-17T17:46:43;6.20;;;2.30;;
23745;SDS011;12053;48.878;9.632;2022-09-17T17:49:10;6.78;;;3.10;;
23745;SDS011;12053;48.878;9.632;2022-09-17T17:51:37;3.85;;;1.60;;
23745;SDS011;12053;48.878;9.632;2022-09-17T17:54:05;5.05;;;3.40;;
23745;SDS011;12053;48.878;9.632;2022-09-17T17:56:32;3.10;;;2.22;;
23745;SDS011;12053;48.878;9.632;2022-09-17T17:58:59;2.45;;;1.60;;
23745;SDS011;12053;48.878;9.632;2022-09-17T18:01:28;2.47;;;1.50;;
23745;SDS011;12053;48.878;9.632;2022-09-17T18:03:59;5.57;;;1.20;;
23745;SDS011;12053;48.878;9.632;2022-09-17T18:06:26;2.50;;;1.63;;
23745;SDS011;12053;48.878;9.632;2022-09-17T18:08:54;1.83;;;0.93;;
23745;SDS011;12053;48.878;9.632;2022-09-17T18:11:21;1.33;;;1.00;;
23745;SDS011;12053;48.878;9.632;2022-09-17T18:13:52;2.50;;;1.55;;